BUB weather

Cram Field
Burwell, Nebraska, United States

Public forecast

Using degrees Fahrenheit for public forecast. Weather courtesy of forecast.io.

Closest aviation weather report (METAR) to Cram Field

Closest report is Evelyn Sharp Field, 12.7 nm (23.6 km) SE. Retrieved 2019/10/21 09:13 UTC (0 seconds ago):

KODX 210913Z AUTO 30023G31KT 10SM BKN021 04/01 A2946

Closest aviation forecast (TAF) to Cram Field

Closest forecast is Central Nebraska Regional Airport, 61.6 nm (114.1 km) SE. Retrieved 2019/10/21 06:27 UTC (3 hours ago):

TAF KGRI 210525Z 2106/2206 26014KT P6SM FEW030 FM210900 28019G28KT P6SM SCT030 BKN120 FM211300 30023G35KT P6SM OVC020 FM212200 32027G35KT P6SM SCT035 FM220300 31017KT P6SM FEW250 WS009/32045KT